createdAt,value
2018-08-22T00:01:45.698Z,1.53
2018-08-22T00:04:14.045Z,1.77
2018-08-22T00:06:42.361Z,1.80
2018-08-22T00:09:10.758Z,1.70
2018-08-22T00:11:39.180Z,1.80
2018-08-22T00:14:07.584Z,2.00
2018-08-22T00:16:35.958Z,1.73
2018-08-22T00:19:04.516Z,1.77
2018-08-22T00:21:32.916Z,1.70
2018-08-22T00:24:01.353Z,1.67
2018-08-22T00:26:29.733Z,1.83
2018-08-22T00:28:58.185Z,1.97
2018-08-22T00:31:26.589Z,1.90
2018-08-22T00:33:54.905Z,1.93
2018-08-22T00:36:23.293Z,1.63
2018-08-22T00:38:51.730Z,1.50
2018-08-22T00:41:20.128Z,1.70
2018-08-22T00:43:48.472Z,1.60
2018-08-22T00:46:16.822Z,1.80
2018-08-22T00:48:45.159Z,1.83
2018-08-22T00:51:13.542Z,1.40
2018-08-22T00:53:41.881Z,1.80
2018-08-22T00:56:10.246Z,1.97
2018-08-22T00:58:38.598Z,2.10
2018-08-22T01:01:06.931Z,1.50
2018-08-22T01:03:35.280Z,1.67
2018-08-22T01:06:03.626Z,2.13
2018-08-22T01:08:32.015Z,1.70
2018-08-22T01:11:00.358Z,1.77
2018-08-22T01:13:28.724Z,2.20
2018-08-22T01:15:57.048Z,1.80
2018-08-22T01:18:25.407Z,1.87
2018-08-22T01:20:53.733Z,1.77
2018-08-22T01:23:22.096Z,1.83
2018-08-22T01:25:50.449Z,1.70
2018-08-22T01:28:18.772Z,1.70
2018-08-22T01:30:47.104Z,1.77
2018-08-22T01:33:15.484Z,2.00
2018-08-22T01:35:43.916Z,1.60
2018-08-22T01:38:12.280Z,1.57
2018-08-22T01:40:40.689Z,1.80
2018-08-22T01:43:09.096Z,2.10
2018-08-22T01:45:37.528Z,1.50
2018-08-22T01:48:05.910Z,1.70
2018-08-22T01:50:34.239Z,1.80
2018-08-22T01:53:02.556Z,1.70
2018-08-22T01:55:30.929Z,1.73
2018-08-22T01:57:59.288Z,1.70
2018-08-22T02:00:27.610Z,1.83
2018-08-22T02:02:55.964Z,1.70
2018-08-22T02:05:24.368Z,1.90
2018-08-22T02:07:52.825Z,1.90
2018-08-22T02:10:21.180Z,1.70
2018-08-22T02:12:49.516Z,1.70
2018-08-22T02:15:20.841Z,1.87
2018-08-22T02:17:49.157Z,2.00
2018-08-22T02:20:17.566Z,1.80
2018-08-22T02:22:45.850Z,1.90
2018-08-22T02:25:14.192Z,1.70
2018-08-22T02:27:42.389Z,1.90
2018-08-22T02:30:10.745Z,1.73
2018-08-22T02:32:38.989Z,1.70
2018-08-22T02:35:07.263Z,1.93
2018-08-22T02:37:35.506Z,1.97
2018-08-22T02:40:03.793Z,1.97
2018-08-22T02:42:32.067Z,1.77
2018-08-22T02:45:00.308Z,1.90
2018-08-22T02:47:28.627Z,1.90
2018-08-22T02:49:56.886Z,2.10
2018-08-22T02:52:25.177Z,1.90
2018-08-22T02:54:53.423Z,2.30
2018-08-22T02:57:21.821Z,2.07
2018-08-22T02:59:50.081Z,1.80
2018-08-22T03:02:18.338Z,2.30
2018-08-22T03:04:46.741Z,1.80
2018-08-22T03:07:15.034Z,1.70
2018-08-22T03:09:43.341Z,2.03
2018-08-22T03:12:11.605Z,1.63
2018-08-22T03:14:39.901Z,1.90
2018-08-22T03:17:08.174Z,2.10
2018-08-22T03:19:36.461Z,2.20
2018-08-22T03:22:04.743Z,2.17
2018-08-22T03:24:33.042Z,2.10
2018-08-22T03:27:01.306Z,2.17
2018-08-22T03:29:29.653Z,1.90
2018-08-22T03:31:57.910Z,2.00
2018-08-22T03:34:26.238Z,1.90
2018-08-22T03:36:54.457Z,1.87
2018-08-22T03:39:22.741Z,1.97
2018-08-22T03:41:51.013Z,1.90
2018-08-22T03:44:19.253Z,2.20
2018-08-22T03:46:47.546Z,2.27
2018-08-22T03:49:15.863Z,2.10
2018-08-22T03:51:44.146Z,2.30
2018-08-22T03:54:12.422Z,2.10
2018-08-22T03:56:40.749Z,2.23
2018-08-22T03:59:09.015Z,1.90
2018-08-22T04:01:37.243Z,2.00
2018-08-22T04:04:05.521Z,1.83
2018-08-22T04:06:33.788Z,2.20
2018-08-22T04:09:02.080Z,2.10
2018-08-22T04:11:30.514Z,1.90
2018-08-22T04:13:58.777Z,2.20
2018-08-22T04:16:27.029Z,2.20
2018-08-22T04:18:55.344Z,2.20
2018-08-22T04:21:23.569Z,2.00
2018-08-22T04:23:51.838Z,2.00
2018-08-22T04:26:20.118Z,2.00
2018-08-22T04:28:48.376Z,2.07
2018-08-22T04:31:16.634Z,2.20
2018-08-22T04:33:44.880Z,2.10
2018-08-22T04:36:13.154Z,2.00
2018-08-22T04:38:41.420Z,2.23
2018-08-22T04:41:09.705Z,2.37
2018-08-22T04:43:37.961Z,2.30
2018-08-22T04:46:06.215Z,1.80
2018-08-22T04:48:34.476Z,2.40
2018-08-22T04:51:02.707Z,2.00
2018-08-22T04:53:30.987Z,2.43
2018-08-22T04:55:59.222Z,2.00
2018-08-22T04:58:27.509Z,1.80
2018-08-22T05:00:55.807Z,2.30
2018-08-22T05:03:24.135Z,2.00
2018-08-22T05:05:52.540Z,1.87
2018-08-22T05:08:20.769Z,1.80
2018-08-22T05:10:49.083Z,2.20
2018-08-22T05:13:17.309Z,2.20
2018-08-22T05:15:45.680Z,2.27
2018-08-22T05:18:13.920Z,2.07
2018-08-22T05:20:42.228Z,2.20
2018-08-22T05:23:10.460Z,2.27
2018-08-22T05:25:38.704Z,2.20
2018-08-22T05:28:07.002Z,2.50
2018-08-22T05:30:35.665Z,1.90
2018-08-22T05:33:03.947Z,2.10
2018-08-22T05:35:32.175Z,2.10
2018-08-22T05:38:00.757Z,2.20
2018-08-22T05:40:29.020Z,2.90
2018-08-22T05:42:57.471Z,2.63
2018-08-22T05:45:25.715Z,2.33
2018-08-22T05:47:53.961Z,2.30
2018-08-22T05:50:22.202Z,2.40
2018-08-22T05:52:50.480Z,2.57
2018-08-22T05:55:18.753Z,3.00
2018-08-22T05:57:47.029Z,2.20
2018-08-22T06:00:15.323Z,2.60
2018-08-22T06:02:43.573Z,2.20
2018-08-22T06:05:13.899Z,2.37
2018-08-22T06:07:43.824Z,2.20
2018-08-22T06:10:12.073Z,2.10
2018-08-22T06:12:41.162Z,2.07
2018-08-22T06:15:11.158Z,2.50
2018-08-22T06:17:39.559Z,2.23
2018-08-22T06:20:07.871Z,2.33
2018-08-22T06:22:36.165Z,2.57
2018-08-22T06:25:04.422Z,2.10
2018-08-22T06:27:32.676Z,2.47
2018-08-22T06:30:00.922Z,2.33
2018-08-22T06:32:29.322Z,2.10
2018-08-22T06:34:58.108Z,1.90
2018-08-22T06:37:26.317Z,2.17
2018-08-22T06:39:54.602Z,2.60
2018-08-22T06:42:22.900Z,4.37
2018-08-22T06:44:51.162Z,2.37
2018-08-22T06:47:19.493Z,2.60
2018-08-22T06:49:47.750Z,2.20
2018-08-22T06:52:18.619Z,2.20
2018-08-22T06:54:47.350Z,2.17
2018-08-22T06:57:16.293Z,2.27
2018-08-22T06:59:45.146Z,1.90
2018-08-22T07:02:14.153Z,2.40
2018-08-22T07:04:42.545Z,1.93
2018-08-22T07:07:12.499Z,2.43
2018-08-22T07:09:40.744Z,1.90
2018-08-22T07:12:08.962Z,2.07
2018-08-22T07:14:37.494Z,1.90
2018-08-22T07:17:06.182Z,1.87
2018-08-22T07:19:34.597Z,2.00
2018-08-22T07:22:02.880Z,2.03
2018-08-22T07:24:31.220Z,2.50
2018-08-22T07:26:59.506Z,2.30
2018-08-22T07:29:27.930Z,1.77
2018-08-22T07:31:56.221Z,2.20
2018-08-22T07:34:24.597Z,1.97
2018-08-22T07:36:52.874Z,2.00
2018-08-22T07:39:21.149Z,2.03
2018-08-22T07:41:49.469Z,1.63
2018-08-22T07:44:17.884Z,2.30
2018-08-22T07:46:46.168Z,1.33
2018-08-22T07:49:14.510Z,2.00
2018-08-22T07:51:42.813Z,1.67
2018-08-22T07:54:11.301Z,1.77
2018-08-22T07:56:39.570Z,1.70
2018-08-22T07:59:11.033Z,1.83
2018-08-22T08:01:39.821Z,1.80
2018-08-22T08:04:09.425Z,2.03
2018-08-22T08:06:37.727Z,2.07
2018-08-22T08:09:08.779Z,2.00
2018-08-22T08:11:37.085Z,1.73
2018-08-22T08:14:05.356Z,1.60
2018-08-22T08:16:33.700Z,1.90
2018-08-22T08:19:02.042Z,1.80
2018-08-22T08:21:30.357Z,2.62
2018-08-22T08:23:58.909Z,1.67
2018-08-22T08:26:27.195Z,2.40
2018-08-22T08:28:55.534Z,1.47
2018-08-22T08:31:23.834Z,1.62
2018-08-22T08:33:52.113Z,2.22
2018-08-22T08:36:20.387Z,1.67
2018-08-22T08:38:48.704Z,1.67
2018-08-22T08:41:17.080Z,2.00
2018-08-22T08:43:45.398Z,1.87
2018-08-22T08:46:13.794Z,1.92
2018-08-22T08:48:42.097Z,1.92
2018-08-22T08:51:10.457Z,2.45
2018-08-22T08:53:38.766Z,1.80
2018-08-22T08:56:07.114Z,1.60
2018-08-22T08:58:35.431Z,2.33
2018-08-22T09:01:03.741Z,2.25
2018-08-22T09:03:32.004Z,2.05
2018-08-22T09:06:00.340Z,1.60
2018-08-22T09:08:28.664Z,1.57
2018-08-22T09:10:56.909Z,1.40
2018-08-22T09:13:25.244Z,1.20
2018-08-22T09:15:53.461Z,1.65
2018-08-22T09:18:21.727Z,1.85
2018-08-22T09:20:50.073Z,1.40
2018-08-22T09:23:18.465Z,1.67
2018-08-22T09:25:46.713Z,1.45
2018-08-22T09:28:15.109Z,1.47
2018-08-22T09:30:43.486Z,1.40
2018-08-22T09:33:11.889Z,1.20
2018-08-22T09:35:40.165Z,2.10
2018-08-22T09:38:08.441Z,1.67
2018-08-22T09:40:36.782Z,1.30
2018-08-22T09:43:05.111Z,1.60
2018-08-22T09:45:33.364Z,1.62
2018-08-22T09:48:01.774Z,1.32
2018-08-22T09:50:30.009Z,1.50
2018-08-22T09:52:58.296Z,1.60
2018-08-22T09:55:26.565Z,1.80
2018-08-22T09:57:54.865Z,1.42
2018-08-22T10:00:28.439Z,1.60
2018-08-22T10:02:56.714Z,1.47
2018-08-22T10:05:25.073Z,1.80
2018-08-22T10:07:53.429Z,1.45
2018-08-22T10:10:21.737Z,1.52
2018-08-22T10:12:50.160Z,1.50
2018-08-22T10:15:18.500Z,1.60
2018-08-22T10:17:46.859Z,1.80
2018-08-22T10:20:15.137Z,1.67
2018-08-22T10:22:43.516Z,1.72
2018-08-22T10:25:12.429Z,1.45
2018-08-22T10:27:40.767Z,1.60
2018-08-22T10:30:09.037Z,1.82
2018-08-22T10:32:37.351Z,1.60
2018-08-22T10:35:06.104Z,1.35
2018-08-22T10:37:34.373Z,1.55
2018-08-22T10:40:02.772Z,1.50
2018-08-22T10:42:31.094Z,1.62
2018-08-22T10:44:59.338Z,1.70
2018-08-22T10:47:27.645Z,1.30
2018-08-22T10:49:55.910Z,1.70
2018-08-22T10:52:24.206Z,1.30
2018-08-22T10:54:52.581Z,1.60
2018-08-22T10:57:20.877Z,1.45
2018-08-22T10:59:49.137Z,1.30
2018-08-22T11:02:17.445Z,1.50
2018-08-22T11:04:45.712Z,1.32
2018-08-22T11:07:14.013Z,1.37
2018-08-22T11:09:42.327Z,1.70
2018-08-22T11:12:10.627Z,1.42
2018-08-22T11:14:38.909Z,1.90
2018-08-22T11:17:07.262Z,1.70
2018-08-22T11:19:35.578Z,1.70
2018-08-22T11:22:15.103Z,1.47
2018-08-22T11:24:54.761Z,1.52
2018-08-22T11:27:34.242Z,1.27
2018-08-22T11:30:13.851Z,1.60
2018-08-22T11:32:53.373Z,2.05
2018-08-22T11:35:20.633Z,1.70
2018-08-22T11:37:48.901Z,1.52
2018-08-22T11:40:17.148Z,1.22
2018-08-22T11:42:45.407Z,1.32
2018-08-22T11:45:13.646Z,2.00
2018-08-22T11:47:41.909Z,1.65
2018-08-22T11:50:10.195Z,1.72
2018-08-22T11:52:38.432Z,1.02
2018-08-22T11:55:06.824Z,0.95
2018-08-22T11:57:35.086Z,1.10
2018-08-22T12:00:03.478Z,1.60
2018-08-22T12:02:31.834Z,1.30
2018-08-22T12:05:00.110Z,1.20
2018-08-22T12:07:28.403Z,1.92
2018-08-22T12:09:56.683Z,1.15
2018-08-22T12:12:25.084Z,1.37
2018-08-22T12:14:53.378Z,1.57
2018-08-22T12:17:21.655Z,1.60
2018-08-22T12:19:49.933Z,1.40
2018-08-22T12:22:18.178Z,1.22
2018-08-22T12:24:46.446Z,1.40
2018-08-22T12:27:14.661Z,1.15
2018-08-22T12:29:42.901Z,1.07
2018-08-22T12:32:11.193Z,1.00
2018-08-22T12:34:39.533Z,1.27
2018-08-22T12:37:08.854Z,1.20
2018-08-22T12:39:37.264Z,1.40
2018-08-22T12:42:05.691Z,1.60
2018-08-22T12:44:34.030Z,1.85
2018-08-22T12:47:04.294Z,1.40
2018-08-22T12:49:32.561Z,1.47
2018-08-22T12:52:00.835Z,1.60
2018-08-22T12:54:29.163Z,1.35
2018-08-22T12:56:57.594Z,2.20
2018-08-22T12:59:25.884Z,8.75
2018-08-22T13:01:54.205Z,2.75
2018-08-22T13:04:22.594Z,1.50
2018-08-22T13:06:50.919Z,1.75
2018-08-22T13:09:19.180Z,3.40
2018-08-22T13:11:47.517Z,1.60
2018-08-22T13:14:15.775Z,1.50
2018-08-22T13:16:44.137Z,1.12
2018-08-22T13:19:12.389Z,2.30
2018-08-22T13:21:40.652Z,1.70
2018-08-22T13:24:08.916Z,1.30
2018-08-22T13:26:37.270Z,1.40
2018-08-22T13:29:05.789Z,1.62
2018-08-22T13:31:34.064Z,1.35
2018-08-22T13:34:02.417Z,1.90
2018-08-22T13:36:30.769Z,1.52
2018-08-22T13:38:59.155Z,1.62
2018-08-22T13:41:27.349Z,1.52
2018-08-22T13:43:55.617Z,1.90
2018-08-22T13:46:23.858Z,1.98
2018-08-22T13:48:52.137Z,1.60
2018-08-22T13:51:20.379Z,1.77
2018-08-22T13:53:48.623Z,2.00
2018-08-22T13:56:16.942Z,1.80
2018-08-22T13:58:45.412Z,1.72
2018-08-22T14:01:13.641Z,1.90
2018-08-22T14:03:42.362Z,1.75
2018-08-22T14:06:10.721Z,1.77
2018-08-22T14:08:38.998Z,1.82
2018-08-22T14:11:07.284Z,1.70
2018-08-22T14:13:35.784Z,1.50
2018-08-22T14:16:04.057Z,1.42
2018-08-22T14:18:32.277Z,1.67
2018-08-22T14:21:00.587Z,1.77
2018-08-22T14:23:28.978Z,1.70
2018-08-22T14:25:57.244Z,1.72
2018-08-22T14:28:25.530Z,1.60
2018-08-22T14:30:53.804Z,1.65
2018-08-22T14:33:22.054Z,1.45
2018-08-22T14:35:50.352Z,1.95
2018-08-22T14:38:18.709Z,1.80
2018-08-22T14:40:46.962Z,1.75
2018-08-22T14:43:15.261Z,1.60
2018-08-22T14:45:43.632Z,1.45
2018-08-22T14:48:12.122Z,1.92
2018-08-22T14:50:40.571Z,1.80
2018-08-22T14:53:08.900Z,1.50
2018-08-22T14:55:37.201Z,1.67
2018-08-22T14:58:05.679Z,1.95
2018-08-22T15:00:33.930Z,1.60
2018-08-22T15:03:02.414Z,1.62
2018-08-22T15:05:30.478Z,2.12
2018-08-22T15:07:58.738Z,1.57
2018-08-22T15:10:26.998Z,2.67
2018-08-22T15:12:55.331Z,2.25
2018-08-22T15:15:23.590Z,1.60
2018-08-22T15:17:51.977Z,1.62
2018-08-22T15:20:20.230Z,2.15
2018-08-22T15:22:48.486Z,1.45
2018-08-22T15:25:16.919Z,1.90
2018-08-22T15:27:45.162Z,1.67
2018-08-22T15:30:13.454Z,1.62
2018-08-22T15:32:41.713Z,1.80
2018-08-22T15:35:16.576Z,1.40
2018-08-22T15:37:44.828Z,1.92
2018-08-22T15:40:13.073Z,1.60
2018-08-22T15:42:41.308Z,1.60
2018-08-22T15:45:09.548Z,1.60
2018-08-22T15:47:37.813Z,1.60
2018-08-22T15:50:06.509Z,1.70
2018-08-22T15:52:34.784Z,1.70
2018-08-22T15:55:10.798Z,1.40
2018-08-22T15:58:07.975Z,1.52
2018-08-22T16:00:45.089Z,1.90
2018-08-22T16:03:13.349Z,2.40
2018-08-22T16:05:42.443Z,3.30
2018-08-22T16:08:11.277Z,2.30
2018-08-22T16:10:39.568Z,2.20
2018-08-22T16:13:14.706Z,4.70
2018-08-22T16:15:42.973Z,1.72
2018-08-22T16:18:11.198Z,3.05
2018-08-22T16:20:49.536Z,2.52
2018-08-22T16:23:17.849Z,2.40
2018-08-22T16:25:47.621Z,2.35
2018-08-22T16:28:15.993Z,3.05
2018-08-22T16:30:44.210Z,2.40
2018-08-22T16:33:12.462Z,2.77
2018-08-22T16:35:40.707Z,2.58
2018-08-22T16:38:12.896Z,3.40
2018-08-22T16:40:42.688Z,3.02
2018-08-22T16:43:10.943Z,2.95
2018-08-22T16:45:45.874Z,2.80
2018-08-22T16:48:17.808Z,2.60
2018-08-22T16:50:46.268Z,2.05
2018-08-22T16:53:14.517Z,2.67
2018-08-22T16:55:42.883Z,2.55
2018-08-22T16:58:11.182Z,2.58
2018-08-22T17:00:44.034Z,2.62
2018-08-22T17:03:12.414Z,2.12
2018-08-22T17:05:40.689Z,2.77
2018-08-22T17:08:09.058Z,3.40
2018-08-22T17:10:53.176Z,2.67
2018-08-22T17:13:29.384Z,2.58
2018-08-22T17:15:58.807Z,2.75
2018-08-22T17:18:27.345Z,2.77
2018-08-22T17:20:55.746Z,3.67
2018-08-22T17:23:24.158Z,4.37
2018-08-22T17:25:52.567Z,2.95
2018-08-22T17:28:52.655Z,3.20
2018-08-22T17:31:21.992Z,3.60
2018-08-22T17:33:54.042Z,3.12
2018-08-22T17:36:22.501Z,3.00
2018-08-22T17:38:53.373Z,2.90
2018-08-22T17:41:22.866Z,2.80
2018-08-22T17:44:02.912Z,3.12
2018-08-22T17:46:33.723Z,2.98
2018-08-22T17:49:02.084Z,2.80
2018-08-22T17:51:30.433Z,2.65
2018-08-22T17:53:58.862Z,3.00
2018-08-22T17:56:27.595Z,2.85
2018-08-22T17:58:56.782Z,2.77
2018-08-22T18:01:25.385Z,2.60
2018-08-22T18:03:55.853Z,2.27
2018-08-22T18:06:24.309Z,2.50
2018-08-22T18:08:52.564Z,2.42
2018-08-22T18:11:20.910Z,2.77
2018-08-22T18:13:49.236Z,2.40
2018-08-22T18:16:17.400Z,2.93
2018-08-22T18:18:45.674Z,2.43
2018-08-22T18:21:13.914Z,2.47
2018-08-22T18:23:48.404Z,2.93
2018-08-22T18:26:16.737Z,3.00
2018-08-22T18:28:45.024Z,2.73
2018-08-22T18:31:13.254Z,2.87
2018-08-22T18:33:55.702Z,3.00
2018-08-22T18:36:24.687Z,3.10
2018-08-22T18:39:01.703Z,3.00
2018-08-22T18:41:29.993Z,3.17
2018-08-22T18:43:58.275Z,2.90
2018-08-22T18:46:26.613Z,2.77
2018-08-22T18:48:54.889Z,2.83
2018-08-22T18:51:23.197Z,2.80
2018-08-22T18:53:51.490Z,2.80
2018-08-22T18:56:21.530Z,3.00
2018-08-22T18:58:49.898Z,3.10
2018-08-22T19:01:18.638Z,3.40
2018-08-22T19:03:46.977Z,3.20
2018-08-22T19:06:15.258Z,3.10
2018-08-22T19:08:43.548Z,3.73
2018-08-22T19:11:11.936Z,2.67
2018-08-22T19:13:40.339Z,3.40
2018-08-22T19:16:10.646Z,3.63
2018-08-22T19:18:39.314Z,3.00
2018-08-22T19:21:09.089Z,3.17
2018-08-22T19:23:38.205Z,3.13
2018-08-22T19:26:07.513Z,3.80
2018-08-22T19:28:52.387Z,4.03
2018-08-22T19:31:20.670Z,3.33
2018-08-22T19:33:48.942Z,3.60
2018-08-22T19:36:17.226Z,3.97
2018-08-22T19:38:45.478Z,3.90
2018-08-22T19:41:21.965Z,3.90
2018-08-22T19:43:50.525Z,4.00
2018-08-22T19:46:18.746Z,3.67
2018-08-22T19:48:47.044Z,3.70
2018-08-22T19:51:15.328Z,4.03
2018-08-22T19:53:55.609Z,4.00
2018-08-22T19:56:24.356Z,3.50
2018-08-22T19:58:52.673Z,3.70
2018-08-22T20:01:21.081Z,3.90
2018-08-22T20:03:52.613Z,3.70
2018-08-22T20:06:21.190Z,3.87
2018-08-22T20:08:52.039Z,4.10
2018-08-22T20:11:20.413Z,4.03
2018-08-22T20:13:51.842Z,3.57
2018-08-22T20:16:21.207Z,3.90
2018-08-22T20:18:56.302Z,3.77
2018-08-22T20:21:29.875Z,4.00
2018-08-22T20:23:58.336Z,3.83
2018-08-22T20:26:27.499Z,3.80
2018-08-22T20:28:57.124Z,4.00
2018-08-22T20:31:25.306Z,3.80
2018-08-22T20:34:05.234Z,3.80
2018-08-22T20:36:33.548Z,3.70
2018-08-22T20:39:06.480Z,3.97
2018-08-22T20:41:35.065Z,3.60
2018-08-22T20:44:06.225Z,3.80
2018-08-22T20:46:34.470Z,4.00
2018-08-22T20:49:02.786Z,4.23
2018-08-22T20:51:31.534Z,4.13
2018-08-22T20:54:05.191Z,3.60
2018-08-22T20:56:33.430Z,4.47
2018-08-22T20:59:01.797Z,4.43
2018-08-22T21:01:30.070Z,3.87
2018-08-22T21:03:58.334Z,4.17
2018-08-22T21:06:26.686Z,3.97
2018-08-22T21:08:54.918Z,3.83
2018-08-22T21:11:23.177Z,4.33
2018-08-22T21:13:51.600Z,4.50
2018-08-22T21:16:19.798Z,4.10
2018-08-22T21:18:48.045Z,3.97
2018-08-22T21:21:21.406Z,4.50
2018-08-22T21:23:49.757Z,4.50
2018-08-22T21:26:32.192Z,4.20
2018-08-22T21:29:00.555Z,4.17
2018-08-22T21:31:28.769Z,4.30
2018-08-22T21:33:57.033Z,4.00
2018-08-22T21:36:25.525Z,3.90
2018-08-22T21:38:53.868Z,3.80
2018-08-22T21:41:28.803Z,3.80
2018-08-22T21:43:57.045Z,4.13
2018-08-22T21:46:25.559Z,3.97
2018-08-22T21:48:53.858Z,3.70
2018-08-22T21:51:22.161Z,3.90
2018-08-22T21:53:50.420Z,3.57
2018-08-22T21:56:18.737Z,3.23
2018-08-22T21:58:47.055Z,2.97
2018-08-22T22:01:15.265Z,3.17
2018-08-22T22:03:43.626Z,3.27
2018-08-22T22:06:11.910Z,3.30
2018-08-22T22:08:44.233Z,2.90
2018-08-22T22:11:12.529Z,3.10
2018-08-22T22:13:40.889Z,2.67
2018-08-22T22:16:09.116Z,3.27
2018-08-22T22:18:37.394Z,3.03
2018-08-22T22:21:12.205Z,2.80
2018-08-22T22:23:46.673Z,2.80
2018-08-22T22:26:16.031Z,2.33
2018-08-22T22:28:44.276Z,2.33
2018-08-22T22:31:13.625Z,2.53
2018-08-22T22:33:46.411Z,3.00
2018-08-22T22:36:15.181Z,2.93
2018-08-22T22:38:43.433Z,3.10
2018-08-22T22:41:11.678Z,2.90
2018-08-22T22:43:39.953Z,2.70
2018-08-22T22:46:08.298Z,3.00
2018-08-22T22:48:37.886Z,3.00
2018-08-22T22:51:06.789Z,2.87
2018-08-22T22:53:35.418Z,2.60
2018-08-22T22:56:03.949Z,3.10
2018-08-22T22:58:33.162Z,3.30
2018-08-22T23:01:01.457Z,2.57
2018-08-22T23:03:29.737Z,2.43
2018-08-22T23:05:58.029Z,2.50
2018-08-22T23:08:26.433Z,2.37
2018-08-22T23:10:54.912Z,2.40
2018-08-22T23:13:24.973Z,2.50
2018-08-22T23:15:53.238Z,2.93
2018-08-22T23:18:21.559Z,2.60
2018-08-22T23:20:49.793Z,2.90
2018-08-22T23:23:30.357Z,2.67
2018-08-22T23:26:06.790Z,2.90
2018-08-22T23:28:35.075Z,2.90
2018-08-22T23:31:03.465Z,2.67
2018-08-22T23:33:31.704Z,2.77
2018-08-22T23:35:59.943Z,2.97
2018-08-22T23:38:32.290Z,3.10
2018-08-22T23:41:01.242Z,3.23
2018-08-22T23:44:03.777Z,3.17
2018-08-22T23:46:32.474Z,3.07
2018-08-22T23:49:00.722Z,3.33
2018-08-22T23:51:28.986Z,3.40
2018-08-22T23:53:57.853Z,3.60
2018-08-22T23:56:27.151Z,3.00
2018-08-22T23:58:55.964Z,3.10
